sensor_id;sensor_type;location;lat;lon;timestamp;P1;durP1;ratioP1;P2;durP2;ratioP2
42742;SDS011;28397;44.552;-0.848;2022-07-06T00:01:25;4.20;;;1.48;;
42742;SDS011;28397;44.552;-0.848;2022-07-06T00:03:51;4.30;;;1.73;;
42742;SDS011;28397;44.552;-0.848;2022-07-06T00:06:17;4.82;;;1.90;;
42742;SDS011;28397;44.552;-0.848;2022-07-06T00:08:43;5.00;;;1.58;;
42742;SDS011;28397;44.552;-0.848;2022-07-06T00:11:10;2.83;;;1.63;;
42742;SDS011;28397;44.552;-0.848;2022-07-06T00:13:36;3.28;;;1.45;;
42742;SDS011;28397;44.552;-0.848;2022-07-06T00:16:02;5.28;;;1.70;;
42742;SDS011;28397;44.552;-0.848;2022-07-06T00:18:28;3.85;;;1.75;;
42742;SDS011;28397;44.552;-0.848;2022-07-06T00:20:55;4.05;;;1.67;;
42742;SDS011;28397;44.552;-0.848;2022-07-06T00:23:21;7.05;;;1.88;;
42742;SDS011;28397;44.552;-0.848;2022-07-06T00:25:47;3.42;;;1.42;;
42742;SDS011;28397;44.552;-0.848;2022-07-06T00:28:14;4.70;;;1.85;;
42742;SDS011;28397;44.552;-0.848;2022-07-06T00:30:40;5.38;;;1.75;;
42742;SDS011;28397;44.552;-0.848;2022-07-06T00:33:06;5.40;;;1.83;;
42742;SDS011;28397;44.552;-0.848;2022-07-06T00:35:32;5.47;;;1.98;;
42742;SDS011;28397;44.552;-0.848;2022-07-06T00:37:58;3.70;;;1.70;;
42742;SDS011;28397;44.552;-0.848;2022-07-06T00:40:24;4.57;;;1.90;;
42742;SDS011;28397;44.552;-0.848;2022-07-06T00:42:50;3.78;;;1.80;;
42742;SDS011;28397;44.552;-0.848;2022-07-06T00:45:17;2.83;;;1.42;;
42742;SDS011;28397;44.552;-0.848;2022-07-06T00:47:43;4.25;;;1.60;;
42742;SDS011;28397;44.552;-0.848;2022-07-06T00:50:11;4.30;;;1.95;;
42742;SDS011;28397;44.552;-0.848;2022-07-06T00:52:40;5.68;;;1.70;;
42742;SDS011;28397;44.552;-0.848;2022-07-06T00:55:07;3.38;;;1.60;;
42742;SDS011;28397;44.552;-0.848;2022-07-06T00:57:33;6.68;;;1.92;;
42742;SDS011;28397;44.552;-0.848;2022-07-06T01:00:00;6.43;;;1.73;;
42742;SDS011;28397;44.552;-0.848;2022-07-06T01:02:26;3.17;;;1.52;;
42742;SDS011;28397;44.552;-0.848;2022-07-06T01:04:52;3.15;;;1.80;;
42742;SDS011;28397;44.552;-0.848;2022-07-06T01:07:18;3.67;;;1.70;;
42742;SDS011;28397;44.552;-0.848;2022-07-06T01:09:44;4.05;;;1.77;;
42742;SDS011;28397;44.552;-0.848;2022-07-06T01:12:10;4.57;;;1.92;;
42742;SDS011;28397;44.552;-0.848;2022-07-06T01:14:36;4.85;;;1.88;;
42742;SDS011;28397;44.552;-0.848;2022-07-06T01:17:03;4.53;;;1.85;;
42742;SDS011;28397;44.552;-0.848;2022-07-06T01:19:29;5.90;;;2.00;;
42742;SDS011;28397;44.552;-0.848;2022-07-06T01:21:55;4.78;;;1.95;;
42742;SDS011;28397;44.552;-0.848;2022-07-06T01:24:21;2.45;;;1.50;;
42742;SDS011;28397;44.552;-0.848;2022-07-06T01:26:47;2.88;;;1.67;;
42742;SDS011;28397;44.552;-0.848;2022-07-06T01:29:13;5.63;;;1.70;;
42742;SDS011;28397;44.552;-0.848;2022-07-06T01:31:46;6.22;;;2.00;;
42742;SDS011;28397;44.552;-0.848;2022-07-06T01:34:13;3.95;;;1.83;;
42742;SDS011;28397;44.552;-0.848;2022-07-06T01:36:40;6.28;;;1.75;;
42742;SDS011;28397;44.552;-0.848;2022-07-06T01:39:06;5.53;;;1.92;;
42742;SDS011;28397;44.552;-0.848;2022-07-06T01:41:33;6.40;;;1.85;;
42742;SDS011;28397;44.552;-0.848;2022-07-06T01:44:00;5.00;;;2.00;;
42742;SDS011;28397;44.552;-0.848;2022-07-06T01:46:26;5.20;;;2.08;;
42742;SDS011;28397;44.552;-0.848;2022-07-06T01:48:52;6.00;;;1.95;;
42742;SDS011;28397;44.552;-0.848;2022-07-06T01:51:18;4.25;;;2.08;;
42742;SDS011;28397;44.552;-0.848;2022-07-06T01:53:44;3.67;;;1.67;;
42742;SDS011;28397;44.552;-0.848;2022-07-06T01:56:10;4.70;;;2.03;;
42742;SDS011;28397;44.552;-0.848;2022-07-06T01:58:37;4.60;;;1.80;;
42742;SDS011;28397;44.552;-0.848;2022-07-06T02:01:09;6.20;;;2.05;;
42742;SDS011;28397;44.552;-0.848;2022-07-06T02:03:36;6.63;;;2.40;;
42742;SDS011;28397;44.552;-0.848;2022-07-06T02:06:02;4.85;;;2.08;;
42742;SDS011;28397;44.552;-0.848;2022-07-06T02:08:28;8.70;;;2.33;;
42742;SDS011;28397;44.552;-0.848;2022-07-06T02:10:55;5.50;;;1.98;;
42742;SDS011;28397;44.552;-0.848;2022-07-06T02:13:21;7.43;;;1.80;;
42742;SDS011;28397;44.552;-0.848;2022-07-06T02:15:47;4.45;;;1.90;;
42742;SDS011;28397;44.552;-0.848;2022-07-06T02:18:13;3.17;;;1.73;;
42742;SDS011;28397;44.552;-0.848;2022-07-06T02:20:39;3.35;;;1.70;;
42742;SDS011;28397;44.552;-0.848;2022-07-06T02:23:05;4.07;;;1.80;;
42742;SDS011;28397;44.552;-0.848;2022-07-06T02:25:31;4.85;;;1.75;;
42742;SDS011;28397;44.552;-0.848;2022-07-06T02:27:57;2.42;;;1.60;;
42742;SDS011;28397;44.552;-0.848;2022-07-06T02:30:23;3.20;;;1.70;;
42742;SDS011;28397;44.552;-0.848;2022-07-06T02:32:49;5.10;;;2.17;;
42742;SDS011;28397;44.552;-0.848;2022-07-06T02:35:15;5.47;;;2.00;;
42742;SDS011;28397;44.552;-0.848;2022-07-06T02:37:41;3.08;;;1.90;;
42742;SDS011;28397;44.552;-0.848;2022-07-06T02:40:07;3.22;;;1.83;;
42742;SDS011;28397;44.552;-0.848;2022-07-06T02:42:34;5.57;;;1.90;;
42742;SDS011;28397;44.552;-0.848;2022-07-06T02:45:00;4.03;;;1.77;;
42742;SDS011;28397;44.552;-0.848;2022-07-06T02:47:26;3.90;;;1.70;;
42742;SDS011;28397;44.552;-0.848;2022-07-06T02:49:52;3.55;;;1.70;;
42742;SDS011;28397;44.552;-0.848;2022-07-06T02:52:18;6.82;;;1.85;;
42742;SDS011;28397;44.552;-0.848;2022-07-06T02:54:44;4.55;;;2.03;;
42742;SDS011;28397;44.552;-0.848;2022-07-06T02:57:11;4.15;;;1.90;;
42742;SDS011;28397;44.552;-0.848;2022-07-06T02:59:37;3.42;;;1.80;;
42742;SDS011;28397;44.552;-0.848;2022-07-06T03:02:03;4.88;;;1.85;;
42742;SDS011;28397;44.552;-0.848;2022-07-06T03:04:29;5.25;;;1.90;;
42742;SDS011;28397;44.552;-0.848;2022-07-06T03:06:55;3.40;;;1.50;;
42742;SDS011;28397;44.552;-0.848;2022-07-06T03:09:21;6.72;;;1.85;;
42742;SDS011;28397;44.552;-0.848;2022-07-06T03:11:47;3.47;;;1.58;;
42742;SDS011;28397;44.552;-0.848;2022-07-06T03:14:13;3.85;;;1.80;;
42742;SDS011;28397;44.552;-0.848;2022-07-06T03:16:40;2.53;;;1.50;;
42742;SDS011;28397;44.552;-0.848;2022-07-06T03:19:06;2.97;;;1.75;;
42742;SDS011;28397;44.552;-0.848;2022-07-06T03:21:32;4.55;;;1.80;;
42742;SDS011;28397;44.552;-0.848;2022-07-06T03:23:58;3.35;;;1.92;;
42742;SDS011;28397;44.552;-0.848;2022-07-06T03:26:24;3.97;;;1.60;;
42742;SDS011;28397;44.552;-0.848;2022-07-06T03:28:50;6.22;;;2.00;;
42742;SDS011;28397;44.552;-0.848;2022-07-06T03:33:52;4.55;;;1.70;;
42742;SDS011;28397;44.552;-0.848;2022-07-06T03:36:18;4.57;;;1.52;;
42742;SDS011;28397;44.552;-0.848;2022-07-06T03:38:44;3.35;;;1.90;;
42742;SDS011;28397;44.552;-0.848;2022-07-06T03:41:10;3.05;;;1.77;;
42742;SDS011;28397;44.552;-0.848;2022-07-06T03:43:36;4.85;;;1.80;;
42742;SDS011;28397;44.552;-0.848;2022-07-06T03:46:02;4.13;;;1.70;;
42742;SDS011;28397;44.552;-0.848;2022-07-06T03:48:29;3.05;;;1.50;;
42742;SDS011;28397;44.552;-0.848;2022-07-06T03:50:55;5.15;;;1.90;;
42742;SDS011;28397;44.552;-0.848;2022-07-06T03:53:21;3.33;;;1.60;;
42742;SDS011;28397;44.552;-0.848;2022-07-06T03:55:47;4.93;;;1.80;;
42742;SDS011;28397;44.552;-0.848;2022-07-06T03:58:33;3.03;;;1.85;;
42742;SDS011;28397;44.552;-0.848;2022-07-06T04:00:59;2.65;;;1.67;;
42742;SDS011;28397;44.552;-0.848;2022-07-06T04:03:25;3.53;;;1.70;;
42742;SDS011;28397;44.552;-0.848;2022-07-06T04:05:52;3.00;;;1.73;;
42742;SDS011;28397;44.552;-0.848;2022-07-06T04:08:18;3.25;;;1.80;;
42742;SDS011;28397;44.552;-0.848;2022-07-06T04:10:45;2.92;;;1.52;;
42742;SDS011;28397;44.552;-0.848;2022-07-06T04:13:11;3.13;;;1.55;;
42742;SDS011;28397;44.552;-0.848;2022-07-06T04:15:37;3.80;;;1.80;;
42742;SDS011;28397;44.552;-0.848;2022-07-06T04:18:04;5.15;;;1.90;;
42742;SDS011;28397;44.552;-0.848;2022-07-06T04:20:30;2.20;;;1.58;;
42742;SDS011;28397;44.552;-0.848;2022-07-06T04:22:57;2.47;;;1.38;;
42742;SDS011;28397;44.552;-0.848;2022-07-06T04:25:23;2.97;;;1.75;;
42742;SDS011;28397;44.552;-0.848;2022-07-06T04:27:49;3.80;;;1.98;;
42742;SDS011;28397;44.552;-0.848;2022-07-06T04:30:15;4.05;;;1.80;;
42742;SDS011;28397;44.552;-0.848;2022-07-06T04:32:41;3.67;;;1.70;;
42742;SDS011;28397;44.552;-0.848;2022-07-06T04:35:07;3.28;;;1.80;;
42742;SDS011;28397;44.552;-0.848;2022-07-06T04:37:34;3.90;;;1.70;;
42742;SDS011;28397;44.552;-0.848;2022-07-06T04:40:00;2.33;;;1.55;;
42742;SDS011;28397;44.552;-0.848;2022-07-06T04:42:26;4.53;;;1.70;;
42742;SDS011;28397;44.552;-0.848;2022-07-06T04:44:52;4.18;;;1.98;;
42742;SDS011;28397;44.552;-0.848;2022-07-06T04:47:18;3.72;;;1.63;;
42742;SDS011;28397;44.552;-0.848;2022-07-06T04:49:44;4.18;;;2.00;;
42742;SDS011;28397;44.552;-0.848;2022-07-06T04:52:10;4.40;;;1.77;;
42742;SDS011;28397;44.552;-0.848;2022-07-06T04:54:36;3.47;;;1.60;;
42742;SDS011;28397;44.552;-0.848;2022-07-06T04:57:02;4.10;;;1.75;;
42742;SDS011;28397;44.552;-0.848;2022-07-06T04:59:28;3.90;;;1.75;;
42742;SDS011;28397;44.552;-0.848;2022-07-06T05:01:54;3.33;;;1.60;;
42742;SDS011;28397;44.552;-0.848;2022-07-06T05:04:20;3.85;;;1.70;;
42742;SDS011;28397;44.552;-0.848;2022-07-06T05:06:47;2.85;;;1.75;;
42742;SDS011;28397;44.552;-0.848;2022-07-06T05:09:13;3.50;;;1.80;;
42742;SDS011;28397;44.552;-0.848;2022-07-06T05:11:39;3.13;;;2.00;;
42742;SDS011;28397;44.552;-0.848;2022-07-06T05:14:05;4.03;;;1.73;;
42742;SDS011;28397;44.552;-0.848;2022-07-06T05:16:31;2.15;;;1.67;;
42742;SDS011;28397;44.552;-0.848;2022-07-06T05:18:57;4.43;;;1.75;;
42742;SDS011;28397;44.552;-0.848;2022-07-06T05:21:24;2.97;;;1.85;;
42742;SDS011;28397;44.552;-0.848;2022-07-06T05:23:50;3.25;;;1.50;;
42742;SDS011;28397;44.552;-0.848;2022-07-06T05:26:16;4.35;;;1.88;;
42742;SDS011;28397;44.552;-0.848;2022-07-06T05:28:42;2.13;;;1.60;;
42742;SDS011;28397;44.552;-0.848;2022-07-06T05:31:08;3.60;;;1.60;;
42742;SDS011;28397;44.552;-0.848;2022-07-06T05:33:34;4.22;;;1.77;;
42742;SDS011;28397;44.552;-0.848;2022-07-06T05:36:00;3.33;;;1.70;;
42742;SDS011;28397;44.552;-0.848;2022-07-06T05:38:26;4.53;;;1.77;;
42742;SDS011;28397;44.552;-0.848;2022-07-06T05:40:52;3.22;;;1.50;;
42742;SDS011;28397;44.552;-0.848;2022-07-06T05:43:18;2.58;;;1.70;;
42742;SDS011;28397;44.552;-0.848;2022-07-06T05:45:44;5.50;;;1.83;;
42742;SDS011;28397;44.552;-0.848;2022-07-06T05:48:10;3.88;;;1.80;;
42742;SDS011;28397;44.552;-0.848;2022-07-06T05:50:55;3.85;;;1.50;;
42742;SDS011;28397;44.552;-0.848;2022-07-06T05:53:21;4.10;;;1.55;;
42742;SDS011;28397;44.552;-0.848;2022-07-06T05:55:47;4.13;;;1.58;;
42742;SDS011;28397;44.552;-0.848;2022-07-06T05:58:13;3.35;;;1.63;;
42742;SDS011;28397;44.552;-0.848;2022-07-06T06:00:39;3.88;;;1.60;;
42742;SDS011;28397;44.552;-0.848;2022-07-06T06:03:06;3.67;;;1.50;;
42742;SDS011;28397;44.552;-0.848;2022-07-06T06:05:32;2.95;;;1.80;;
42742;SDS011;28397;44.552;-0.848;2022-07-06T06:07:58;4.30;;;1.40;;
42742;SDS011;28397;44.552;-0.848;2022-07-06T06:10:24;3.40;;;1.48;;
42742;SDS011;28397;44.552;-0.848;2022-07-06T06:12:50;2.35;;;1.60;;
42742;SDS011;28397;44.552;-0.848;2022-07-06T06:15:16;3.15;;;1.90;;
42742;SDS011;28397;44.552;-0.848;2022-07-06T06:17:42;3.53;;;1.58;;
42742;SDS011;28397;44.552;-0.848;2022-07-06T06:20:09;3.17;;;1.40;;
42742;SDS011;28397;44.552;-0.848;2022-07-06T06:22:54;4.18;;;1.52;;
42742;SDS011;28397;44.552;-0.848;2022-07-06T06:25:27;3.67;;;1.98;;
42742;SDS011;28397;44.552;-0.848;2022-07-06T06:27:53;10.07;;;1.73;;
42742;SDS011;28397;44.552;-0.848;2022-07-06T06:30:19;3.95;;;1.50;;
42742;SDS011;28397;44.552;-0.848;2022-07-06T06:32:45;2.58;;;1.60;;
42742;SDS011;28397;44.552;-0.848;2022-07-06T06:35:11;3.60;;;1.63;;
42742;SDS011;28397;44.552;-0.848;2022-07-06T06:37:37;3.08;;;1.60;;
42742;SDS011;28397;44.552;-0.848;2022-07-06T06:40:04;3.35;;;1.40;;
42742;SDS011;28397;44.552;-0.848;2022-07-06T06:42:31;2.55;;;1.35;;
42742;SDS011;28397;44.552;-0.848;2022-07-06T06:44:57;8.00;;;1.70;;
42742;SDS011;28397;44.552;-0.848;2022-07-06T06:47:23;6.93;;;1.73;;
42742;SDS011;28397;44.552;-0.848;2022-07-06T06:49:49;15.63;;;2.90;;
42742;SDS011;28397;44.552;-0.848;2022-07-06T06:52:15;8.82;;;2.47;;
42742;SDS011;28397;44.552;-0.848;2022-07-06T06:54:41;28.50;;;6.10;;
42742;SDS011;28397;44.552;-0.848;2022-07-06T06:57:07;241.75;;;39.40;;
42742;SDS011;28397;44.552;-0.848;2022-07-06T06:59:33;83.47;;;14.75;;
42742;SDS011;28397;44.552;-0.848;2022-07-06T07:01:59;391.30;;;65.28;;
42742;SDS011;28397;44.552;-0.848;2022-07-06T07:04:25;263.70;;;47.13;;
42742;SDS011;28397;44.552;-0.848;2022-07-06T07:06:51;312.30;;;54.97;;
42742;SDS011;28397;44.552;-0.848;2022-07-06T07:09:17;247.45;;;42.47;;
42742;SDS011;28397;44.552;-0.848;2022-07-06T07:11:43;89.70;;;17.83;;
42742;SDS011;28397;44.552;-0.848;2022-07-06T07:14:09;7.93;;;2.75;;
42742;SDS011;28397;44.552;-0.848;2022-07-06T07:16:35;72.88;;;15.25;;
42742;SDS011;28397;44.552;-0.848;2022-07-06T07:19:01;22.42;;;5.43;;
42742;SDS011;28397;44.552;-0.848;2022-07-06T07:21:27;19.75;;;5.32;;
42742;SDS011;28397;44.552;-0.848;2022-07-06T07:23:53;22.30;;;5.03;;
42742;SDS011;28397;44.552;-0.848;2022-07-06T07:26:19;36.42;;;7.43;;
42742;SDS011;28397;44.552;-0.848;2022-07-06T07:28:45;3.55;;;1.52;;
42742;SDS011;28397;44.552;-0.848;2022-07-06T07:31:11;8.10;;;2.25;;
42742;SDS011;28397;44.552;-0.848;2022-07-06T07:33:38;46.60;;;11.02;;
42742;SDS011;28397;44.552;-0.848;2022-07-06T07:36:07;4.95;;;1.70;;
42742;SDS011;28397;44.552;-0.848;2022-07-06T07:38:33;43.30;;;9.70;;
42742;SDS011;28397;44.552;-0.848;2022-07-06T07:40:59;4.63;;;1.50;;
42742;SDS011;28397;44.552;-0.848;2022-07-06T07:43:25;2.95;;;1.50;;
42742;SDS011;28397;44.552;-0.848;2022-07-06T07:45:51;5.95;;;2.08;;
42742;SDS011;28397;44.552;-0.848;2022-07-06T07:48:17;29.67;;;7.47;;
42742;SDS011;28397;44.552;-0.848;2022-07-06T07:50:43;13.15;;;4.47;;
42742;SDS011;28397;44.552;-0.848;2022-07-06T07:53:09;10.00;;;2.88;;
42742;SDS011;28397;44.552;-0.848;2022-07-06T07:55:35;7.43;;;2.55;;
42742;SDS011;28397;44.552;-0.848;2022-07-06T07:58:01;2.72;;;1.30;;
42742;SDS011;28397;44.552;-0.848;2022-07-06T08:00:27;30.95;;;9.82;;
42742;SDS011;28397;44.552;-0.848;2022-07-06T08:02:54;16.83;;;3.67;;
42742;SDS011;28397;44.552;-0.848;2022-07-06T08:05:20;9.43;;;2.58;;
42742;SDS011;28397;44.552;-0.848;2022-07-06T08:07:47;10.13;;;2.72;;
42742;SDS011;28397;44.552;-0.848;2022-07-06T08:10:13;2.38;;;1.63;;
42742;SDS011;28397;44.552;-0.848;2022-07-06T08:12:39;10.73;;;2.90;;
42742;SDS011;28397;44.552;-0.848;2022-07-06T08:15:05;3.45;;;1.55;;
42742;SDS011;28397;44.552;-0.848;2022-07-06T08:17:32;5.82;;;2.20;;
42742;SDS011;28397;44.552;-0.848;2022-07-06T08:19:58;4.40;;;1.65;;
42742;SDS011;28397;44.552;-0.848;2022-07-06T08:22:24;11.18;;;4.25;;
42742;SDS011;28397;44.552;-0.848;2022-07-06T08:24:50;10.13;;;4.00;;
42742;SDS011;28397;44.552;-0.848;2022-07-06T08:27:16;2.42;;;1.33;;
42742;SDS011;28397;44.552;-0.848;2022-07-06T08:29:42;1.60;;;1.08;;
42742;SDS011;28397;44.552;-0.848;2022-07-06T08:32:08;3.70;;;1.55;;
42742;SDS011;28397;44.552;-0.848;2022-07-06T08:34:34;4.68;;;1.65;;
42742;SDS011;28397;44.552;-0.848;2022-07-06T08:37:00;2.92;;;1.50;;
42742;SDS011;28397;44.552;-0.848;2022-07-06T08:39:26;5.60;;;2.03;;
42742;SDS011;28397;44.552;-0.848;2022-07-06T08:41:52;12.13;;;4.45;;
42742;SDS011;28397;44.552;-0.848;2022-07-06T08:44:20;12.90;;;4.18;;
42742;SDS011;28397;44.552;-0.848;2022-07-06T08:46:46;2.53;;;1.52;;
42742;SDS011;28397;44.552;-0.848;2022-07-06T08:49:15;4.75;;;1.50;;
42742;SDS011;28397;44.552;-0.848;2022-07-06T08:51:41;3.38;;;1.35;;
42742;SDS011;28397;44.552;-0.848;2022-07-06T08:54:08;5.00;;;1.30;;
42742;SDS011;28397;44.552;-0.848;2022-07-06T08:56:34;3.45;;;1.50;;
42742;SDS011;28397;44.552;-0.848;2022-07-06T08:59:00;2.83;;;1.42;;
42742;SDS011;28397;44.552;-0.848;2022-07-06T09:01:26;3.72;;;1.63;;
42742;SDS011;28397;44.552;-0.848;2022-07-06T09:03:54;2.13;;;1.30;;
42742;SDS011;28397;44.552;-0.848;2022-07-06T09:06:23;3.92;;;1.70;;
42742;SDS011;28397;44.552;-0.848;2022-07-06T09:08:49;3.08;;;1.70;;
42742;SDS011;28397;44.552;-0.848;2022-07-06T09:11:18;3.97;;;1.50;;
42742;SDS011;28397;44.552;-0.848;2022-07-06T09:13:44;2.33;;;1.40;;
42742;SDS011;28397;44.552;-0.848;2022-07-06T09:16:11;3.97;;;1.38;;
42742;SDS011;28397;44.552;-0.848;2022-07-06T09:18:41;1.92;;;1.50;;
42742;SDS011;28397;44.552;-0.848;2022-07-06T09:21:09;7.00;;;2.75;;
42742;SDS011;28397;44.552;-0.848;2022-07-06T09:23:35;5.03;;;1.73;;
42742;SDS011;28397;44.552;-0.848;2022-07-06T09:26:07;4.22;;;1.75;;
42742;SDS011;28397;44.552;-0.848;2022-07-06T09:28:43;3.78;;;1.60;;
42742;SDS011;28397;44.552;-0.848;2022-07-06T09:31:09;3.35;;;1.60;;
42742;SDS011;28397;44.552;-0.848;2022-07-06T09:33:35;4.65;;;1.45;;
42742;SDS011;28397;44.552;-0.848;2022-07-06T09:36:02;4.90;;;1.52;;
42742;SDS011;28397;44.552;-0.848;2022-07-06T09:38:28;3.50;;;1.40;;
42742;SDS011;28397;44.552;-0.848;2022-07-06T09:40:54;3.03;;;1.40;;
42742;SDS011;28397;44.552;-0.848;2022-07-06T09:43:21;2.00;;;1.40;;
42742;SDS011;28397;44.552;-0.848;2022-07-06T09:45:48;3.90;;;1.90;;
42742;SDS011;28397;44.552;-0.848;2022-07-06T09:48:15;3.80;;;1.75;;
42742;SDS011;28397;44.552;-0.848;2022-07-06T09:50:47;3.72;;;1.60;;
42742;SDS011;28397;44.552;-0.848;2022-07-06T09:53:13;3.05;;;1.27;;
42742;SDS011;28397;44.552;-0.848;2022-07-06T09:55:44;3.90;;;1.20;;
42742;SDS011;28397;44.552;-0.848;2022-07-06T09:58:10;3.10;;;1.30;;
42742;SDS011;28397;44.552;-0.848;2022-07-06T10:00:36;2.45;;;1.25;;
42742;SDS011;28397;44.552;-0.848;2022-07-06T10:03:03;3.50;;;1.48;;
42742;SDS011;28397;44.552;-0.848;2022-07-06T10:05:30;3.80;;;1.30;;
42742;SDS011;28397;44.552;-0.848;2022-07-06T10:07:57;3.03;;;1.20;;
42742;SDS011;28397;44.552;-0.848;2022-07-06T10:10:27;1.63;;;1.50;;
42742;SDS011;28397;44.552;-0.848;2022-07-06T10:12:57;2.95;;;1.38;;
42742;SDS011;28397;44.552;-0.848;2022-07-06T10:15:24;1.73;;;1.10;;
42742;SDS011;28397;44.552;-0.848;2022-07-06T10:17:51;2.78;;;1.20;;
42742;SDS011;28397;44.552;-0.848;2022-07-06T10:20:20;2.97;;;1.17;;
42742;SDS011;28397;44.552;-0.848;2022-07-06T10:22:47;2.15;;;1.40;;
42742;SDS011;28397;44.552;-0.848;2022-07-06T10:25:16;2.45;;;1.20;;
42742;SDS011;28397;44.552;-0.848;2022-07-06T10:27:43;4.45;;;1.55;;
42742;SDS011;28397;44.552;-0.848;2022-07-06T10:30:10;2.70;;;1.30;;
42742;SDS011;28397;44.552;-0.848;2022-07-06T10:32:37;2.25;;;1.10;;
42742;SDS011;28397;44.552;-0.848;2022-07-06T10:35:04;2.78;;;1.23;;
42742;SDS011;28397;44.552;-0.848;2022-07-06T10:37:31;1.90;;;1.00;;
42742;SDS011;28397;44.552;-0.848;2022-07-06T10:39:58;1.40;;;1.00;;
42742;SDS011;28397;44.552;-0.848;2022-07-06T10:42:55;3.00;;;1.33;;
42742;SDS011;28397;44.552;-0.848;2022-07-06T10:50:53;2.92;;;1.45;;
42742;SDS011;28397;44.552;-0.848;2022-07-06T10:53:25;2.55;;;1.20;;
42742;SDS011;28397;44.552;-0.848;2022-07-06T10:55:52;3.00;;;1.45;;
42742;SDS011;28397;44.552;-0.848;2022-07-06T11:01:03;3.10;;;1.30;;
42742;SDS011;28397;44.552;-0.848;2022-07-06T11:06:00;3.22;;;1.20;;
42742;SDS011;28397;44.552;-0.848;2022-07-06T11:11:12;3.15;;;1.20;;
42742;SDS011;28397;44.552;-0.848;2022-07-06T11:13:56;2.13;;;1.20;;
42742;SDS011;28397;44.552;-0.848;2022-07-06T11:16:23;2.72;;;1.40;;
42742;SDS011;28397;44.552;-0.848;2022-07-06T11:19:00;3.10;;;1.20;;
42742;SDS011;28397;44.552;-0.848;2022-07-06T11:21:34;4.88;;;1.50;;
42742;SDS011;28397;44.552;-0.848;2022-07-06T11:24:01;4.03;;;1.55;;
42742;SDS011;28397;44.552;-0.848;2022-07-06T11:26:27;3.20;;;1.60;;
42742;SDS011;28397;44.552;-0.848;2022-07-06T11:28:53;3.05;;;1.30;;
42742;SDS011;28397;44.552;-0.848;2022-07-06T11:31:19;2.00;;;1.38;;
42742;SDS011;28397;44.552;-0.848;2022-07-06T11:33:46;2.05;;;1.40;;
42742;SDS011;28397;44.552;-0.848;2022-07-06T11:36:13;4.13;;;1.45;;
42742;SDS011;28397;44.552;-0.848;2022-07-06T11:38:40;4.28;;;1.38;;
42742;SDS011;28397;44.552;-0.848;2022-07-06T11:41:06;7.80;;;1.50;;
42742;SDS011;28397;44.552;-0.848;2022-07-06T11:43:32;1.77;;;1.25;;
42742;SDS011;28397;44.552;-0.848;2022-07-06T11:45:58;2.72;;;1.50;;
42742;SDS011;28397;44.552;-0.848;2022-07-06T11:48:25;5.15;;;1.60;;
42742;SDS011;28397;44.552;-0.848;2022-07-06T11:50:58;5.22;;;1.60;;
42742;SDS011;28397;44.552;-0.848;2022-07-06T11:55:50;2.65;;;1.50;;
42742;SDS011;28397;44.552;-0.848;2022-07-06T11:58:17;4.72;;;1.38;;
42742;SDS011;28397;44.552;-0.848;2022-07-06T12:01:03;4.32;;;1.40;;
42742;SDS011;28397;44.552;-0.848;2022-07-06T12:03:29;2.25;;;1.30;;
42742;SDS011;28397;44.552;-0.848;2022-07-06T12:05:55;3.55;;;1.40;;
42742;SDS011;28397;44.552;-0.848;2022-07-06T12:08:21;2.72;;;1.30;;
42742;SDS011;28397;44.552;-0.848;2022-07-06T12:10:47;3.15;;;1.17;;
42742;SDS011;28397;44.552;-0.848;2022-07-06T12:13:13;2.45;;;1.40;;
42742;SDS011;28397;44.552;-0.848;2022-07-06T12:15:39;2.03;;;1.40;;
42742;SDS011;28397;44.552;-0.848;2022-07-06T12:18:05;3.90;;;1.10;;
42742;SDS011;28397;44.552;-0.848;2022-07-06T12:20:31;3.78;;;1.40;;
42742;SDS011;28397;44.552;-0.848;2022-07-06T12:23:01;9.00;;;1.50;;
42742;SDS011;28397;44.552;-0.848;2022-07-06T12:25:31;3.88;;;1.15;;
42742;SDS011;28397;44.552;-0.848;2022-07-06T12:27:57;1.92;;;1.20;;
42742;SDS011;28397;44.552;-0.848;2022-07-06T12:30:23;2.45;;;1.30;;
42742;SDS011;28397;44.552;-0.848;2022-07-06T12:35:34;3.25;;;1.38;;
42742;SDS011;28397;44.552;-0.848;2022-07-06T12:38:00;5.50;;;1.20;;
42742;SDS011;28397;44.552;-0.848;2022-07-06T12:40:26;2.75;;;1.20;;
42742;SDS011;28397;44.552;-0.848;2022-07-06T12:42:53;5.28;;;1.25;;
42742;SDS011;28397;44.552;-0.848;2022-07-06T12:45:19;2.97;;;1.30;;
42742;SDS011;28397;44.552;-0.848;2022-07-06T12:48:04;2.05;;;1.10;;
42742;SDS011;28397;44.552;-0.848;2022-07-06T12:50:34;2.15;;;1.17;;
42742;SDS011;28397;44.552;-0.848;2022-07-06T12:53:01;2.20;;;1.20;;
42742;SDS011;28397;44.552;-0.848;2022-07-06T12:55:28;1.75;;;1.10;;
42742;SDS011;28397;44.552;-0.848;2022-07-06T12:57:54;1.42;;;1.10;;
42742;SDS011;28397;44.552;-0.848;2022-07-06T13:00:21;4.63;;;1.10;;
42742;SDS011;28397;44.552;-0.848;2022-07-06T13:02:51;4.72;;;1.55;;
42742;SDS011;28397;44.552;-0.848;2022-07-06T13:05:27;1.63;;;1.10;;
42742;SDS011;28397;44.552;-0.848;2022-07-06T13:07:53;1.27;;;1.10;;
42742;SDS011;28397;44.552;-0.848;2022-07-06T13:10:20;2.45;;;1.10;;
42742;SDS011;28397;44.552;-0.848;2022-07-06T13:12:47;2.30;;;1.10;;
42742;SDS011;28397;44.552;-0.848;2022-07-06T13:15:13;3.33;;;1.00;;
42742;SDS011;28397;44.552;-0.848;2022-07-06T13:17:39;1.60;;;1.25;;
42742;SDS011;28397;44.552;-0.848;2022-07-06T13:20:06;6.40;;;1.30;;
42742;SDS011;28397;44.552;-0.848;2022-07-06T13:22:33;3.65;;;1.40;;
42742;SDS011;28397;44.552;-0.848;2022-07-06T13:24:59;2.28;;;1.33;;
42742;SDS011;28397;44.552;-0.848;2022-07-06T13:27:25;2.40;;;1.10;;
42742;SDS011;28397;44.552;-0.848;2022-07-06T13:29:51;2.40;;;1.35;;
42742;SDS011;28397;44.552;-0.848;2022-07-06T13:32:17;3.17;;;1.42;;
42742;SDS011;28397;44.552;-0.848;2022-07-06T13:34:43;1.95;;;1.30;;
42742;SDS011;28397;44.552;-0.848;2022-07-06T13:37:09;4.22;;;1.40;;
42742;SDS011;28397;44.552;-0.848;2022-07-06T13:39:35;4.40;;;1.30;;
42742;SDS011;28397;44.552;-0.848;2022-07-06T13:42:01;1.42;;;1.10;;
42742;SDS011;28397;44.552;-0.848;2022-07-06T13:44:28;1.42;;;1.05;;
42742;SDS011;28397;44.552;-0.848;2022-07-06T13:46:54;2.47;;;1.17;;
42742;SDS011;28397;44.552;-0.848;2022-07-06T13:49:20;3.22;;;1.30;;
42742;SDS011;28397;44.552;-0.848;2022-07-06T13:51:46;1.88;;;1.30;;
42742;SDS011;28397;44.552;-0.848;2022-07-06T13:54:12;1.98;;;1.33;;
42742;SDS011;28397;44.552;-0.848;2022-07-06T13:56:38;2.17;;;1.20;;
42742;SDS011;28397;44.552;-0.848;2022-07-06T13:59:05;2.72;;;1.65;;
42742;SDS011;28397;44.552;-0.848;2022-07-06T14:01:31;1.88;;;1.20;;
42742;SDS011;28397;44.552;-0.848;2022-07-06T14:03:57;3.58;;;1.35;;
42742;SDS011;28397;44.552;-0.848;2022-07-06T14:06:23;2.78;;;1.40;;
42742;SDS011;28397;44.552;-0.848;2022-07-06T14:08:49;1.63;;;1.30;;
42742;SDS011;28397;44.552;-0.848;2022-07-06T14:11:16;2.15;;;1.20;;
42742;SDS011;28397;44.552;-0.848;2022-07-06T14:13:42;1.40;;;1.30;;
42742;SDS011;28397;44.552;-0.848;2022-07-06T14:16:09;2.92;;;1.48;;
42742;SDS011;28397;44.552;-0.848;2022-07-06T14:18:35;5.60;;;1.50;;
42742;SDS011;28397;44.552;-0.848;2022-07-06T14:21:01;3.50;;;1.50;;
42742;SDS011;28397;44.552;-0.848;2022-07-06T14:23:28;4.00;;;1.35;;
42742;SDS011;28397;44.552;-0.848;2022-07-06T14:25:55;2.22;;;1.35;;
42742;SDS011;28397;44.552;-0.848;2022-07-06T14:28:22;2.88;;;1.35;;
42742;SDS011;28397;44.552;-0.848;2022-07-06T14:30:48;3.95;;;1.63;;
42742;SDS011;28397;44.552;-0.848;2022-07-06T14:33:14;3.13;;;1.45;;
42742;SDS011;28397;44.552;-0.848;2022-07-06T14:35:42;1.60;;;1.42;;
42742;SDS011;28397;44.552;-0.848;2022-07-06T14:38:09;4.28;;;1.27;;
42742;SDS011;28397;44.552;-0.848;2022-07-06T14:40:35;4.95;;;1.50;;
42742;SDS011;28397;44.552;-0.848;2022-07-06T14:43:01;3.13;;;1.50;;
42742;SDS011;28397;44.552;-0.848;2022-07-06T14:45:28;2.67;;;1.33;;
42742;SDS011;28397;44.552;-0.848;2022-07-06T14:47:54;2.58;;;1.50;;
42742;SDS011;28397;44.552;-0.848;2022-07-06T14:50:20;1.73;;;1.30;;
42742;SDS011;28397;44.552;-0.848;2022-07-06T14:52:49;3.03;;;1.40;;